createdAt,value
2022-10-22T09:50:13.163Z,14.75
2022-10-22T10:54:41.281Z,15.17
2022-10-22T10:57:19.585Z,15.12
2022-10-22T11:00:05.041Z,15.15
2022-10-22T11:02:31.655Z,15.09
2022-10-22T11:05:01.134Z,15.03
2022-10-22T11:07:36.082Z,15.10
2022-10-22T11:10:09.124Z,15.17
2022-10-22T11:12:37.388Z,15.01
2022-10-22T11:15:18.773Z,15.05
2022-10-22T11:35:25.658Z,15.76
2022-10-22T11:37:52.922Z,15.40
2022-10-22T11:40:22.228Z,15.51
2022-10-22T11:42:55.038Z,15.60
2022-10-22T12:52:45.293Z,15.69
2022-10-22T13:42:57.460Z,15.60
2022-10-22T14:10:29.491Z,15.21
2022-10-22T14:18:44.220Z,15.31
2022-10-22T14:49:01.009Z,14.76
2022-10-22T14:51:27.592Z,14.48
2022-10-22T14:53:54.384Z,14.53
2022-10-22T14:56:24.104Z,14.60
2022-10-22T14:58:51.089Z,14.60
2022-10-22T15:01:18.538Z,14.52
2022-10-22T15:03:47.894Z,14.41
2022-10-22T15:06:15.608Z,14.30
2022-10-22T15:08:43.386Z,14.30
2022-10-22T15:11:12.312Z,14.24
2022-10-22T15:13:40.290Z,14.25
2022-10-22T15:16:07.865Z,14.23
2022-10-22T15:18:35.524Z,14.22
2022-10-22T15:21:03.806Z,14.18
2022-10-22T15:23:32.847Z,14.15
2022-10-22T15:26:00.894Z,14.15
2022-10-22T15:28:27.667Z,14.08
2022-10-22T15:30:58.303Z,14.00
2022-10-22T15:33:25.117Z,13.96
2022-10-22T15:35:51.904Z,13.93
2022-10-22T15:38:20.435Z,13.92
2022-10-22T15:40:47.744Z,13.90
2022-10-22T15:43:17.661Z,13.87
2022-10-22T15:45:47.703Z,13.89
2022-10-22T15:48:16.151Z,13.82
2022-10-22T15:50:45.013Z,13.77
2022-10-22T15:53:13.153Z,13.73
2022-10-22T15:55:40.782Z,13.66
2022-10-22T15:58:07.866Z,13.59
2022-10-22T16:00:34.998Z,13.49
2022-10-22T16:03:01.831Z,13.43
2022-10-22T16:05:28.611Z,13.32
2022-10-22T16:07:56.602Z,13.25
2022-10-22T16:10:25.931Z,13.09
2022-10-22T16:12:54.636Z,12.92
2022-10-22T16:15:25.671Z,12.77
2022-10-22T16:17:52.784Z,12.58
2022-10-22T16:20:19.873Z,12.40
2022-10-22T16:22:49.633Z,12.25
2022-10-22T16:25:16.882Z,12.11
2022-10-22T16:27:44.303Z,11.98
2022-10-22T16:30:11.440Z,11.78
2022-10-22T16:32:38.246Z,11.61
2022-10-22T16:35:05.224Z,11.48
2022-10-22T16:37:32.350Z,11.40
2022-10-22T16:40:00.284Z,11.36
2022-10-22T16:42:27.769Z,11.32
2022-10-22T16:44:54.364Z,11.26
2022-10-22T16:47:21.122Z,11.19
2022-10-22T16:49:47.870Z,11.14
2022-10-22T16:52:14.821Z,11.07
2022-10-22T16:54:41.601Z,10.98
2022-10-22T16:57:09.347Z,10.87
2022-10-22T16:59:36.334Z,10.79
2022-10-22T17:04:31.306Z,10.72
2022-10-22T17:06:58.612Z,10.70
2022-10-22T17:09:25.713Z,10.71
2022-10-22T17:11:52.510Z,10.73
2022-10-22T17:14:19.142Z,10.71
2022-10-22T17:16:46.003Z,10.64
2022-10-22T17:19:13.434Z,10.53
2022-10-22T17:21:40.241Z,10.44
2022-10-22T17:24:07.070Z,10.33
2022-10-22T17:26:34.803Z,10.22
2022-10-22T17:29:01.675Z,10.14
2022-10-22T17:31:33.411Z,10.09
2022-10-22T17:34:00.430Z,10.03
2022-10-22T17:36:30.450Z,9.98
2022-10-22T17:39:00.729Z,9.94
2022-10-22T17:41:29.159Z,9.89
2022-10-22T17:43:56.663Z,9.84
2022-10-22T17:46:24.767Z,9.77
2022-10-22T17:48:55.867Z,9.80
2022-10-22T17:51:23.263Z,9.80
2022-10-22T17:53:52.663Z,9.88
2022-10-22T17:56:22.442Z,9.93
2022-10-22T17:58:49.314Z,9.97
2022-10-22T18:01:29.280Z,9.99
2022-10-22T18:03:58.805Z,9.96
2022-10-22T18:06:25.683Z,9.97
2022-10-22T18:11:20.731Z,10.10
2022-10-22T18:13:54.742Z,10.13
2022-10-22T18:16:21.503Z,10.11
2022-10-22T18:18:48.881Z,10.14
2022-10-22T18:21:16.130Z,10.15
2022-10-22T18:23:42.864Z,10.11
2022-10-22T18:26:09.648Z,9.99
2022-10-22T18:28:36.655Z,9.84
2022-10-22T18:31:07.348Z,9.72
2022-10-22T18:33:34.632Z,9.69
2022-10-22T18:36:05.491Z,9.60
2022-10-22T18:38:32.309Z,9.51
2022-10-22T18:40:59.043Z,9.45
2022-10-22T18:43:25.871Z,9.43
2022-10-22T18:45:52.881Z,9.41
2022-10-22T18:48:20.323Z,9.50
2022-10-22T18:50:52.028Z,9.54
2022-10-22T18:53:19.762Z,9.61
2022-10-22T18:55:46.531Z,9.58
2022-10-22T18:58:13.295Z,9.60
2022-10-22T19:00:40.334Z,9.59
2022-10-22T19:03:07.240Z,9.56
2022-10-22T19:05:33.961Z,9.53
2022-10-22T19:08:01.140Z,9.52
2022-10-22T19:10:27.888Z,9.59
2022-10-22T19:12:54.946Z,9.67
2022-10-22T19:15:21.637Z,9.67
2022-10-22T19:17:48.482Z,9.64
2022-10-22T19:20:15.313Z,9.63
2022-10-22T19:22:42.328Z,9.67
2022-10-22T19:25:11.940Z,9.69
2022-10-22T19:27:39.958Z,9.62
2022-10-22T19:30:07.242Z,9.57
2022-10-22T19:32:34.017Z,9.58
2022-10-22T19:35:00.765Z,9.45
2022-10-22T19:37:27.583Z,9.37
2022-10-22T19:39:54.593Z,9.33
2022-10-22T19:42:21.402Z,9.23
2022-10-22T19:44:48.206Z,9.16
2022-10-22T19:47:16.292Z,9.14
2022-10-22T19:49:42.958Z,9.18
2022-10-22T19:52:09.763Z,9.14
2022-10-22T19:54:40.813Z,9.12
2022-10-22T19:57:08.195Z,9.09
2022-10-22T19:59:34.954Z,9.11
2022-10-22T20:02:02.462Z,9.07
2022-10-22T20:04:30.366Z,9.08
2022-10-22T20:06:57.356Z,8.96
2022-10-22T20:09:24.436Z,8.95
2022-10-22T20:11:51.585Z,8.89
2022-10-22T20:14:18.503Z,8.91
2022-10-22T20:16:45.178Z,8.91
2022-10-22T20:19:16.396Z,8.89
2022-10-22T20:21:43.502Z,8.88
2022-10-22T20:24:11.414Z,8.84
2022-10-22T20:26:38.269Z,8.82
2022-10-22T20:29:08.656Z,8.83
2022-10-22T20:31:36.698Z,8.91
2022-10-22T20:34:04.730Z,8.90
2022-10-22T20:36:31.996Z,8.98
2022-10-22T20:39:02.756Z,8.99
2022-10-22T20:41:29.854Z,9.05
2022-10-22T20:46:40.912Z,9.01
2022-10-22T20:49:10.339Z,9.13
2022-10-22T20:51:37.486Z,9.12
2022-10-22T20:54:05.188Z,9.12
2022-10-22T20:56:32.269Z,9.07
2022-10-22T20:59:05.450Z,9.04
2022-10-22T21:01:42.267Z,9.06
2022-10-22T21:04:09.278Z,8.98
2022-10-22T21:06:38.358Z,8.86
2022-10-22T21:09:06.475Z,8.82
2022-10-22T21:11:33.607Z,8.94
2022-10-22T21:14:00.608Z,8.95
2022-10-22T21:16:27.656Z,9.05
2022-10-22T21:18:54.587Z,9.15
2022-10-22T21:21:22.027Z,9.20
2022-10-22T21:23:50.847Z,9.22
2022-10-22T21:26:21.305Z,9.21
2022-10-22T21:28:48.424Z,9.18
2022-10-22T21:31:22.108Z,9.20
2022-10-22T21:33:50.202Z,9.34
2022-10-22T21:36:21.514Z,9.39
2022-10-22T21:38:49.813Z,9.44
2022-10-22T21:41:17.340Z,9.40
2022-10-22T21:43:44.891Z,9.32
2022-10-22T21:46:16.017Z,9.37
2022-10-22T21:48:43.423Z,9.43
2022-10-22T21:51:19.400Z,9.33
2022-10-22T21:56:20.918Z,9.26
2022-10-22T21:58:48.153Z,9.29
2022-10-22T22:01:16.092Z,9.26
2022-10-22T22:03:44.087Z,9.19
2022-10-22T22:06:11.032Z,9.22
2022-10-22T22:08:38.142Z,9.23
2022-10-22T22:11:18.223Z,9.19
2022-10-22T22:13:44.893Z,9.14
2022-10-22T22:16:13.961Z,9.21
2022-10-22T22:18:42.308Z,9.11
2022-10-22T22:21:12.662Z,9.11
2022-10-22T22:23:41.754Z,9.14
2022-10-22T22:26:09.891Z,9.15
2022-10-22T22:28:37.906Z,9.14
2022-10-22T22:31:18.529Z,9.19
2022-10-22T22:33:48.324Z,9.24
2022-10-22T22:36:16.288Z,9.27
2022-10-22T22:38:43.778Z,9.19
2022-10-22T22:41:12.406Z,9.12
2022-10-22T22:43:39.428Z,9.12
2022-10-22T22:46:08.832Z,9.11
2022-10-22T22:48:36.678Z,9.14
2022-10-22T22:51:05.310Z,9.14
2022-10-22T22:53:40.934Z,9.15
2022-10-22T22:56:12.506Z,9.20
2022-10-22T22:58:43.813Z,9.20
2022-10-22T23:03:57.100Z,9.09
2022-10-22T23:06:25.903Z,9.10
2022-10-22T23:08:53.766Z,9.10
2022-10-22T23:11:23.713Z,9.05
2022-10-22T23:13:54.803Z,9.01
2022-10-22T23:16:24.751Z,9.05
2022-10-22T23:18:52.742Z,8.98
2022-10-22T23:21:21.577Z,9.03
2022-10-22T23:23:54.866Z,9.06
2022-10-22T23:26:24.214Z,9.04
2022-10-22T23:28:51.425Z,9.00
2022-10-22T23:31:20.262Z,8.98
2022-10-22T23:33:47.870Z,8.86
2022-10-22T23:36:15.917Z,8.82
2022-10-22T23:38:44.774Z,8.82
2022-10-22T23:41:12.860Z,8.76
2022-10-22T23:46:27.914Z,8.84
2022-10-22T23:48:54.770Z,8.82
2022-10-22T23:51:22.113Z,8.89
2022-10-22T23:53:53.920Z,8.98
2022-10-22T23:56:20.678Z,9.09
2022-10-22T23:58:48.979Z,9.19
